Kezdőlap
METAR-TAF:

METAR-TAF

Repülőterek :

Nadi, Fidzsi-szigetek

földrajzi szélesség: 17-45S, földrajzi hosszúság: 177-27E, magasság: 13 m

Jelenlegi meteorológiai megfigyelések

A jelentés 1 órával és 7 perccel ezelõtt készült, 18:00 UTC
Szélcsend
Hőmérséklet 19°C
Páratartalom 94%
Légköri nyomás 1016 hPa
Látótávolság 10 km, vagy több
Kevés felhő 3000 lábon

METAR: NFFN 191800Z 00000KT 9999 FEW030 19/18 Q1016 NOSIG

Idő: 07:07 (19:07 UTC)

Előrejelzés

A jelentés 2 órával és 4 perccel ezelõtt készült, 17:03 UTC
Az előrejelzés 19-én 18 óra UTC és 20-én 18 óra UTC között érvényes
Különbözõ irányokból fújó szél 3 kt
Látótávolság 10 km, vagy több
Kevés felhő 3000 lábon
19-én 22 óra UTC és 19-én 24 óra UTC között fokozatosan kialakuló
Nyugati szél 10 kt
20-én 04 óra UTC és 20-én 06 óra UTC között fokozatosan kialakuló
Különbözõ irányokból fújó szél 3 kt

TAF: NFFN 191703Z 1918/2018 VRB03KT 9999 FEW030 BECMG 1922/1924 26010KT BECMG 2004/2006 VRB03KT

Meteorológiai megfigyelések és előrejelzések több, mint 4000 repülőtéren (METAR és TAF jelentéseket).

A térképen piros és sárga pontok jelzik az elérhető meteorológiai állomásokat.

Mozgassa az egeret a pont fölött, hogy megjelenjen az állomás neve.

Azután kattintson az időjárási megfigyelések és előrejelzések megtekintéséhez.

A térkép megváltoztatása: kattintson a fekete keresztel jelölt zöld gombra ráközelítéshez, a vonallal jelölt zöld gombra távolításhoz, vagy a zöld nyilakra a szomszédos térképek eléréséhez.


METAR-TAF: